sensor_id;sensor_type;location;lat;lon;timestamp;P1;durP1;ratioP1;P2;durP2;ratioP2
17361;SDS011;8798;51.938;4.348;2024-01-27T00:01:29;9.77;;;1.90;;
17361;SDS011;8798;51.938;4.348;2024-01-27T00:03:57;11.70;;;2.23;;
17361;SDS011;8798;51.938;4.348;2024-01-27T00:06:27;9.17;;;1.60;;
17361;SDS011;8798;51.938;4.348;2024-01-27T00:08:55;11.43;;;2.40;;
17361;SDS011;8798;51.938;4.348;2024-01-27T00:11:23;8.70;;;1.53;;
17361;SDS011;8798;51.938;4.348;2024-01-27T00:13:53;11.50;;;2.00;;
17361;SDS011;8798;51.938;4.348;2024-01-27T00:16:21;9.93;;;2.30;;
17361;SDS011;8798;51.938;4.348;2024-01-27T00:18:50;9.40;;;1.87;;
17361;SDS011;8798;51.938;4.348;2024-01-27T00:21:18;14.63;;;1.90;;
17361;SDS011;8798;51.938;4.348;2024-01-27T00:23:46;5.60;;;1.73;;
17361;SDS011;8798;51.938;4.348;2024-01-27T00:26:15;9.90;;;1.77;;
17361;SDS011;8798;51.938;4.348;2024-01-27T00:28:42;12.83;;;1.60;;
17361;SDS011;8798;51.938;4.348;2024-01-27T00:31:10;12.47;;;1.53;;
17361;SDS011;8798;51.938;4.348;2024-01-27T00:33:38;10.90;;;1.80;;
17361;SDS011;8798;51.938;4.348;2024-01-27T00:36:08;8.87;;;1.37;;
17361;SDS011;8798;51.938;4.348;2024-01-27T00:38:36;6.30;;;1.67;;
17361;SDS011;8798;51.938;4.348;2024-01-27T00:41:05;11.37;;;1.50;;
17361;SDS011;8798;51.938;4.348;2024-01-27T00:43:32;7.60;;;1.33;;
17361;SDS011;8798;51.938;4.348;2024-01-27T00:46:01;5.97;;;1.70;;
17361;SDS011;8798;51.938;4.348;2024-01-27T00:48:28;10.30;;;1.60;;
17361;SDS011;8798;51.938;4.348;2024-01-27T00:50:56;6.23;;;1.57;;
17361;SDS011;8798;51.938;4.348;2024-01-27T00:53:26;6.07;;;1.30;;
17361;SDS011;8798;51.938;4.348;2024-01-27T00:55:54;6.53;;;1.53;;
17361;SDS011;8798;51.938;4.348;2024-01-27T00:58:22;8.73;;;1.90;;
17361;SDS011;8798;51.938;4.348;2024-01-27T01:00:50;11.93;;;2.10;;
17361;SDS011;8798;51.938;4.348;2024-01-27T01:03:18;8.83;;;1.43;;
17361;SDS011;8798;51.938;4.348;2024-01-27T01:05:46;8.83;;;1.40;;
17361;SDS011;8798;51.938;4.348;2024-01-27T01:08:14;7.10;;;1.57;;
17361;SDS011;8798;51.938;4.348;2024-01-27T01:10:44;8.53;;;1.50;;
17361;SDS011;8798;51.938;4.348;2024-01-27T01:13:12;6.03;;;1.57;;
17361;SDS011;8798;51.938;4.348;2024-01-27T01:15:40;12.83;;;1.50;;
17361;SDS011;8798;51.938;4.348;2024-01-27T01:18:08;8.33;;;1.23;;
17361;SDS011;8798;51.938;4.348;2024-01-27T01:20:36;9.17;;;1.90;;
17361;SDS011;8798;51.938;4.348;2024-01-27T01:23:04;6.60;;;1.30;;
17361;SDS011;8798;51.938;4.348;2024-01-27T01:25:31;8.13;;;1.53;;
17361;SDS011;8798;51.938;4.348;2024-01-27T01:28:01;7.47;;;2.17;;
17361;SDS011;8798;51.938;4.348;2024-01-27T01:30:29;7.30;;;1.80;;
17361;SDS011;8798;51.938;4.348;2024-01-27T01:32:57;8.30;;;1.77;;
17361;SDS011;8798;51.938;4.348;2024-01-27T01:35:25;6.10;;;1.40;;
17361;SDS011;8798;51.938;4.348;2024-01-27T01:37:53;4.00;;;1.40;;
17361;SDS011;8798;51.938;4.348;2024-01-27T01:40:21;4.07;;;1.37;;
17361;SDS011;8798;51.938;4.348;2024-01-27T01:42:50;7.67;;;1.90;;
17361;SDS011;8798;51.938;4.348;2024-01-27T01:45:20;13.03;;;1.97;;
17361;SDS011;8798;51.938;4.348;2024-01-27T01:47:48;11.97;;;2.03;;
17361;SDS011;8798;51.938;4.348;2024-01-27T01:50:17;8.90;;;1.60;;
17361;SDS011;8798;51.938;4.348;2024-01-27T01:52:45;11.13;;;1.90;;
17361;SDS011;8798;51.938;4.348;2024-01-27T01:55:15;8.77;;;1.80;;
17361;SDS011;8798;51.938;4.348;2024-01-27T01:57:43;9.03;;;1.70;;
17361;SDS011;8798;51.938;4.348;2024-01-27T02:00:12;13.10;;;2.10;;
17361;SDS011;8798;51.938;4.348;2024-01-27T02:02:44;7.23;;;1.60;;
17361;SDS011;8798;51.938;4.348;2024-01-27T02:05:13;9.43;;;1.67;;
17361;SDS011;8798;51.938;4.348;2024-01-27T02:07:41;8.87;;;1.67;;
17361;SDS011;8798;51.938;4.348;2024-01-27T02:10:12;10.30;;;2.17;;
17361;SDS011;8798;51.938;4.348;2024-01-27T02:12:42;10.80;;;1.97;;
17361;SDS011;8798;51.938;4.348;2024-01-27T02:15:10;9.20;;;2.10;;
17361;SDS011;8798;51.938;4.348;2024-01-27T02:17:40;9.00;;;1.70;;
17361;SDS011;8798;51.938;4.348;2024-01-27T02:20:10;7.67;;;1.90;;
17361;SDS011;8798;51.938;4.348;2024-01-27T02:22:38;9.60;;;2.20;;
17361;SDS011;8798;51.938;4.348;2024-01-27T02:25:07;9.83;;;2.37;;
17361;SDS011;8798;51.938;4.348;2024-01-27T02:27:36;10.20;;;1.93;;
17361;SDS011;8798;51.938;4.348;2024-01-27T02:30:04;8.77;;;2.40;;
17361;SDS011;8798;51.938;4.348;2024-01-27T02:32:33;10.83;;;2.47;;
17361;SDS011;8798;51.938;4.348;2024-01-27T02:35:01;7.67;;;1.90;;
17361;SDS011;8798;51.938;4.348;2024-01-27T02:37:29;12.10;;;2.30;;
17361;SDS011;8798;51.938;4.348;2024-01-27T02:39:57;10.63;;;2.40;;
17361;SDS011;8798;51.938;4.348;2024-01-27T02:42:27;10.03;;;2.60;;
17361;SDS011;8798;51.938;4.348;2024-01-27T02:44:55;9.30;;;2.50;;
17361;SDS011;8798;51.938;4.348;2024-01-27T02:47:23;13.97;;;2.60;;
17361;SDS011;8798;51.938;4.348;2024-01-27T02:49:51;11.13;;;2.60;;
17361;SDS011;8798;51.938;4.348;2024-01-27T02:52:19;9.97;;;2.90;;
17361;SDS011;8798;51.938;4.348;2024-01-27T02:54:47;8.80;;;3.10;;
17361;SDS011;8798;51.938;4.348;2024-01-27T02:57:15;11.90;;;3.17;;
17361;SDS011;8798;51.938;4.348;2024-01-27T02:59:47;11.27;;;3.87;;
17361;SDS011;8798;51.938;4.348;2024-01-27T03:02:16;17.50;;;3.80;;
17361;SDS011;8798;51.938;4.348;2024-01-27T03:04:50;10.50;;;3.70;;
17361;SDS011;8798;51.938;4.348;2024-01-27T03:07:19;11.30;;;3.47;;
17361;SDS011;8798;51.938;4.348;2024-01-27T03:09:46;16.93;;;4.93;;
17361;SDS011;8798;51.938;4.348;2024-01-27T03:12:14;14.60;;;4.47;;
17361;SDS011;8798;51.938;4.348;2024-01-27T03:14:44;13.97;;;4.40;;
17361;SDS011;8798;51.938;4.348;2024-01-27T03:17:14;12.73;;;4.20;;
17361;SDS011;8798;51.938;4.348;2024-01-27T03:19:42;9.87;;;4.50;;
17361;SDS011;8798;51.938;4.348;2024-01-27T03:22:14;7.77;;;3.90;;
17361;SDS011;8798;51.938;4.348;2024-01-27T03:24:42;16.23;;;4.87;;
17361;SDS011;8798;51.938;4.348;2024-01-27T03:27:10;10.50;;;4.73;;
17361;SDS011;8798;51.938;4.348;2024-01-27T03:29:38;13.47;;;4.90;;
17361;SDS011;8798;51.938;4.348;2024-01-27T03:32:06;14.37;;;4.80;;
17361;SDS011;8798;51.938;4.348;2024-01-27T03:34:35;8.20;;;4.40;;
17361;SDS011;8798;51.938;4.348;2024-01-27T03:37:03;11.27;;;4.70;;
17361;SDS011;8798;51.938;4.348;2024-01-27T03:39:31;11.30;;;4.40;;
17361;SDS011;8798;51.938;4.348;2024-01-27T03:41:59;14.13;;;4.87;;
17361;SDS011;8798;51.938;4.348;2024-01-27T03:44:27;12.10;;;4.93;;
17361;SDS011;8798;51.938;4.348;2024-01-27T03:46:55;12.47;;;4.67;;
17361;SDS011;8798;51.938;4.348;2024-01-27T03:49:23;13.13;;;5.07;;
17361;SDS011;8798;51.938;4.348;2024-01-27T03:51:52;13.23;;;4.40;;
17361;SDS011;8798;51.938;4.348;2024-01-27T03:54:20;13.13;;;4.90;;
17361;SDS011;8798;51.938;4.348;2024-01-27T03:56:48;13.57;;;4.60;;
17361;SDS011;8798;51.938;4.348;2024-01-27T03:59:16;11.57;;;4.63;;
17361;SDS011;8798;51.938;4.348;2024-01-27T04:01:44;10.57;;;4.37;;
17361;SDS011;8798;51.938;4.348;2024-01-27T04:04:12;12.93;;;4.60;;
17361;SDS011;8798;51.938;4.348;2024-01-27T04:06:41;9.90;;;4.17;;
17361;SDS011;8798;51.938;4.348;2024-01-27T04:09:11;14.07;;;4.27;;
17361;SDS011;8798;51.938;4.348;2024-01-27T04:11:39;15.17;;;4.17;;
17361;SDS011;8798;51.938;4.348;2024-01-27T04:14:06;13.83;;;4.23;;
17361;SDS011;8798;51.938;4.348;2024-01-27T04:16:34;11.73;;;3.87;;
17361;SDS011;8798;51.938;4.348;2024-01-27T04:19:02;12.83;;;4.77;;
17361;SDS011;8798;51.938;4.348;2024-01-27T04:21:31;11.20;;;5.13;;
17361;SDS011;8798;51.938;4.348;2024-01-27T04:23:59;16.30;;;4.70;;
17361;SDS011;8798;51.938;4.348;2024-01-27T04:26:28;11.10;;;4.27;;
17361;SDS011;8798;51.938;4.348;2024-01-27T04:28:56;13.47;;;4.53;;
17361;SDS011;8798;51.938;4.348;2024-01-27T04:31:24;15.67;;;4.50;;
17361;SDS011;8798;51.938;4.348;2024-01-27T04:33:52;11.13;;;4.10;;
17361;SDS011;8798;51.938;4.348;2024-01-27T04:36:26;13.70;;;4.00;;
17361;SDS011;8798;51.938;4.348;2024-01-27T04:38:56;12.50;;;4.47;;
17361;SDS011;8798;51.938;4.348;2024-01-27T04:41:24;14.07;;;4.10;;
17361;SDS011;8798;51.938;4.348;2024-01-27T04:43:53;10.13;;;4.13;;
17361;SDS011;8798;51.938;4.348;2024-01-27T04:46:22;11.63;;;4.13;;
17361;SDS011;8798;51.938;4.348;2024-01-27T04:48:50;12.10;;;4.30;;
17361;SDS011;8798;51.938;4.348;2024-01-27T04:51:18;11.13;;;3.97;;
17361;SDS011;8798;51.938;4.348;2024-01-27T04:53:46;16.03;;;4.37;;
17361;SDS011;8798;51.938;4.348;2024-01-27T04:56:14;12.37;;;4.57;;
17361;SDS011;8798;51.938;4.348;2024-01-27T04:58:42;9.10;;;4.33;;
17361;SDS011;8798;51.938;4.348;2024-01-27T05:01:12;13.87;;;4.10;;
17361;SDS011;8798;51.938;4.348;2024-01-27T05:03:40;13.03;;;4.77;;
17361;SDS011;8798;51.938;4.348;2024-01-27T05:06:08;9.27;;;4.10;;
17361;SDS011;8798;51.938;4.348;2024-01-27T05:08:37;10.07;;;4.13;;
17361;SDS011;8798;51.938;4.348;2024-01-27T05:11:06;12.30;;;4.57;;
17361;SDS011;8798;51.938;4.348;2024-01-27T05:13:34;8.80;;;4.43;;
17361;SDS011;8798;51.938;4.348;2024-01-27T05:16:04;10.70;;;4.20;;
17361;SDS011;8798;51.938;4.348;2024-01-27T05:18:34;10.97;;;4.57;;
17361;SDS011;8798;51.938;4.348;2024-01-27T05:21:02;9.83;;;4.47;;
17361;SDS011;8798;51.938;4.348;2024-01-27T05:23:30;13.67;;;4.90;;
17361;SDS011;8798;51.938;4.348;2024-01-27T05:25:58;10.27;;;4.57;;
17361;SDS011;8798;51.938;4.348;2024-01-27T05:28:26;8.87;;;4.10;;
17361;SDS011;8798;51.938;4.348;2024-01-27T05:30:54;13.50;;;4.50;;
17361;SDS011;8798;51.938;4.348;2024-01-27T05:33:22;9.30;;;4.27;;
17361;SDS011;8798;51.938;4.348;2024-01-27T05:35:51;12.33;;;4.37;;
17361;SDS011;8798;51.938;4.348;2024-01-27T05:38:19;13.47;;;4.30;;
17361;SDS011;8798;51.938;4.348;2024-01-27T05:40:48;9.50;;;4.10;;
17361;SDS011;8798;51.938;4.348;2024-01-27T05:43:17;11.47;;;4.17;;
17361;SDS011;8798;51.938;4.348;2024-01-27T05:45:45;11.00;;;4.40;;
17361;SDS011;8798;51.938;4.348;2024-01-27T05:48:13;11.00;;;4.60;;
17361;SDS011;8798;51.938;4.348;2024-01-27T05:50:42;13.77;;;5.10;;
17361;SDS011;8798;51.938;4.348;2024-01-27T05:53:12;9.33;;;4.30;;
17361;SDS011;8798;51.938;4.348;2024-01-27T05:55:42;10.40;;;4.70;;
17361;SDS011;8798;51.938;4.348;2024-01-27T05:58:12;6.37;;;4.17;;
17361;SDS011;8798;51.938;4.348;2024-01-27T06:00:40;10.87;;;4.23;;
17361;SDS011;8798;51.938;4.348;2024-01-27T06:03:10;12.67;;;5.03;;
17361;SDS011;8798;51.938;4.348;2024-01-27T06:05:38;10.03;;;4.43;;
17361;SDS011;8798;51.938;4.348;2024-01-27T06:08:06;15.50;;;4.63;;
17361;SDS011;8798;51.938;4.348;2024-01-27T06:10:36;15.83;;;4.63;;
17361;SDS011;8798;51.938;4.348;2024-01-27T06:13:04;10.43;;;4.53;;
17361;SDS011;8798;51.938;4.348;2024-01-27T06:15:32;13.83;;;4.47;;
17361;SDS011;8798;51.938;4.348;2024-01-27T06:18:00;11.83;;;4.50;;
17361;SDS011;8798;51.938;4.348;2024-01-27T06:20:28;10.07;;;4.23;;
17361;SDS011;8798;51.938;4.348;2024-01-27T06:22:56;10.40;;;4.70;;
17361;SDS011;8798;51.938;4.348;2024-01-27T06:25:24;10.37;;;4.67;;
17361;SDS011;8798;51.938;4.348;2024-01-27T06:27:53;14.10;;;5.30;;
17361;SDS011;8798;51.938;4.348;2024-01-27T06:30:21;14.63;;;4.87;;
17361;SDS011;8798;51.938;4.348;2024-01-27T06:32:49;10.90;;;4.80;;
17361;SDS011;8798;51.938;4.348;2024-01-27T06:35:17;9.40;;;4.47;;
17361;SDS011;8798;51.938;4.348;2024-01-27T06:37:45;10.17;;;4.60;;
17361;SDS011;8798;51.938;4.348;2024-01-27T06:40:13;15.43;;;5.17;;
17361;SDS011;8798;51.938;4.348;2024-01-27T06:42:41;11.17;;;4.90;;
17361;SDS011;8798;51.938;4.348;2024-01-27T06:45:11;17.90;;;4.90;;
17361;SDS011;8798;51.938;4.348;2024-01-27T06:47:39;14.10;;;4.73;;
17361;SDS011;8798;51.938;4.348;2024-01-27T06:50:08;8.83;;;4.60;;
17361;SDS011;8798;51.938;4.348;2024-01-27T06:52:36;11.10;;;5.10;;
17361;SDS011;8798;51.938;4.348;2024-01-27T06:55:05;11.70;;;4.73;;
17361;SDS011;8798;51.938;4.348;2024-01-27T06:57:33;13.40;;;5.00;;
17361;SDS011;8798;51.938;4.348;2024-01-27T07:00:01;11.30;;;4.23;;
17361;SDS011;8798;51.938;4.348;2024-01-27T07:02:31;12.97;;;4.50;;
17361;SDS011;8798;51.938;4.348;2024-01-27T07:04:59;12.43;;;4.83;;
17361;SDS011;8798;51.938;4.348;2024-01-27T07:07:27;11.00;;;4.27;;
17361;SDS011;8798;51.938;4.348;2024-01-27T07:09:55;14.57;;;4.77;;
17361;SDS011;8798;51.938;4.348;2024-01-27T07:12:23;10.90;;;5.00;;
17361;SDS011;8798;51.938;4.348;2024-01-27T07:14:52;13.77;;;4.93;;
17361;SDS011;8798;51.938;4.348;2024-01-27T07:17:23;13.53;;;5.07;;
17361;SDS011;8798;51.938;4.348;2024-01-27T07:19:52;12.80;;;4.87;;
17361;SDS011;8798;51.938;4.348;2024-01-27T07:22:22;11.27;;;5.33;;
17361;SDS011;8798;51.938;4.348;2024-01-27T07:24:50;12.37;;;5.27;;
17361;SDS011;8798;51.938;4.348;2024-01-27T07:27:18;9.90;;;4.30;;
17361;SDS011;8798;51.938;4.348;2024-01-27T07:29:46;13.67;;;5.17;;
17361;SDS011;8798;51.938;4.348;2024-01-27T07:32:14;12.17;;;4.77;;
17361;SDS011;8798;51.938;4.348;2024-01-27T07:34:42;12.27;;;4.60;;
17361;SDS011;8798;51.938;4.348;2024-01-27T07:37:12;11.33;;;4.47;;
17361;SDS011;8798;51.938;4.348;2024-01-27T07:39:40;12.87;;;4.97;;
17361;SDS011;8798;51.938;4.348;2024-01-27T07:42:08;11.20;;;4.43;;
17361;SDS011;8798;51.938;4.348;2024-01-27T07:44:37;15.27;;;5.03;;
17361;SDS011;8798;51.938;4.348;2024-01-27T07:47:05;11.00;;;4.67;;
17361;SDS011;8798;51.938;4.348;2024-01-27T07:49:33;10.03;;;4.60;;
17361;SDS011;8798;51.938;4.348;2024-01-27T07:52:01;12.87;;;4.40;;
17361;SDS011;8798;51.938;4.348;2024-01-27T07:54:30;12.07;;;4.80;;
17361;SDS011;8798;51.938;4.348;2024-01-27T07:56:59;16.23;;;4.83;;
17361;SDS011;8798;51.938;4.348;2024-01-27T07:59:27;19.03;;;4.73;;
17361;SDS011;8798;51.938;4.348;2024-01-27T08:01:55;12.73;;;4.87;;
17361;SDS011;8798;51.938;4.348;2024-01-27T08:04:23;19.00;;;4.70;;
17361;SDS011;8798;51.938;4.348;2024-01-27T08:06:51;10.67;;;4.50;;
17361;SDS011;8798;51.938;4.348;2024-01-27T08:09:21;18.93;;;4.43;;
17361;SDS011;8798;51.938;4.348;2024-01-27T08:11:51;14.17;;;5.10;;
17361;SDS011;8798;51.938;4.348;2024-01-27T08:14:19;12.63;;;4.20;;
17361;SDS011;8798;51.938;4.348;2024-01-27T08:16:48;11.33;;;4.37;;
17361;SDS011;8798;51.938;4.348;2024-01-27T08:19:16;14.37;;;4.70;;
17361;SDS011;8798;51.938;4.348;2024-01-27T08:21:47;9.90;;;4.97;;
17361;SDS011;8798;51.938;4.348;2024-01-27T08:24:15;14.67;;;4.97;;
17361;SDS011;8798;51.938;4.348;2024-01-27T08:26:44;17.23;;;5.30;;
17361;SDS011;8798;51.938;4.348;2024-01-27T08:29:16;12.43;;;4.70;;
17361;SDS011;8798;51.938;4.348;2024-01-27T08:31:44;11.50;;;4.67;;
17361;SDS011;8798;51.938;4.348;2024-01-27T08:34:12;13.00;;;4.70;;
17361;SDS011;8798;51.938;4.348;2024-01-27T08:36:40;8.77;;;4.07;;
17361;SDS011;8798;51.938;4.348;2024-01-27T08:39:09;10.87;;;4.43;;
17361;SDS011;8798;51.938;4.348;2024-01-27T08:41:39;13.03;;;4.63;;
17361;SDS011;8798;51.938;4.348;2024-01-27T08:44:07;13.37;;;4.73;;
17361;SDS011;8798;51.938;4.348;2024-01-27T08:46:37;10.90;;;4.57;;
17361;SDS011;8798;51.938;4.348;2024-01-27T08:49:04;11.03;;;4.33;;
17361;SDS011;8798;51.938;4.348;2024-01-27T08:51:33;13.83;;;5.07;;
17361;SDS011;8798;51.938;4.348;2024-01-27T08:54:01;13.40;;;4.73;;
17361;SDS011;8798;51.938;4.348;2024-01-27T08:56:29;12.83;;;4.77;;
17361;SDS011;8798;51.938;4.348;2024-01-27T08:58:57;10.10;;;4.20;;
17361;SDS011;8798;51.938;4.348;2024-01-27T09:01:25;11.97;;;5.27;;
17361;SDS011;8798;51.938;4.348;2024-01-27T09:03:55;12.17;;;4.20;;
17361;SDS011;8798;51.938;4.348;2024-01-27T09:06:23;15.23;;;4.83;;
17361;SDS011;8798;51.938;4.348;2024-01-27T09:08:56;10.37;;;4.43;;
17361;SDS011;8798;51.938;4.348;2024-01-27T09:11:24;12.97;;;4.37;;
17361;SDS011;8798;51.938;4.348;2024-01-27T09:13:56;9.67;;;4.70;;
17361;SDS011;8798;51.938;4.348;2024-01-27T09:16:24;14.53;;;4.87;;
17361;SDS011;8798;51.938;4.348;2024-01-27T09:18:52;14.63;;;4.70;;
17361;SDS011;8798;51.938;4.348;2024-01-27T09:21:22;13.47;;;4.83;;
17361;SDS011;8798;51.938;4.348;2024-01-27T09:23:55;13.50;;;4.23;;
17361;SDS011;8798;51.938;4.348;2024-01-27T09:26:24;17.03;;;5.50;;
17361;SDS011;8798;51.938;4.348;2024-01-27T09:28:52;11.07;;;4.90;;
17361;SDS011;8798;51.938;4.348;2024-01-27T09:31:21;16.37;;;6.10;;
17361;SDS011;8798;51.938;4.348;2024-01-27T09:33:50;12.43;;;4.87;;
17361;SDS011;8798;51.938;4.348;2024-01-27T09:36:19;12.20;;;4.80;;
17361;SDS011;8798;51.938;4.348;2024-01-27T09:38:49;11.83;;;4.57;;
17361;SDS011;8798;51.938;4.348;2024-01-27T09:41:18;16.47;;;5.23;;
17361;SDS011;8798;51.938;4.348;2024-01-27T09:43:47;11.03;;;4.43;;
17361;SDS011;8798;51.938;4.348;2024-01-27T09:46:15;11.27;;;4.37;;
17361;SDS011;8798;51.938;4.348;2024-01-27T09:48:44;11.90;;;4.70;;
17361;SDS011;8798;51.938;4.348;2024-01-27T09:51:13;17.33;;;5.57;;
17361;SDS011;8798;51.938;4.348;2024-01-27T09:53:42;19.70;;;4.67;;
17361;SDS011;8798;51.938;4.348;2024-01-27T09:56:10;14.17;;;5.23;;
17361;SDS011;8798;51.938;4.348;2024-01-27T09:58:44;10.77;;;4.53;;
17361;SDS011;8798;51.938;4.348;2024-01-27T10:01:13;14.77;;;4.47;;
17361;SDS011;8798;51.938;4.348;2024-01-27T10:03:45;16.43;;;4.70;;
17361;SDS011;8798;51.938;4.348;2024-01-27T10:06:14;11.63;;;5.07;;
17361;SDS011;8798;51.938;4.348;2024-01-27T10:08:44;17.27;;;5.00;;
17361;SDS011;8798;51.938;4.348;2024-01-27T10:11:20;14.27;;;5.03;;
17361;SDS011;8798;51.938;4.348;2024-01-27T10:13:53;10.37;;;4.60;;
17361;SDS011;8798;51.938;4.348;2024-01-27T10:16:25;12.40;;;4.50;;
17361;SDS011;8798;51.938;4.348;2024-01-27T10:19:00;14.07;;;4.80;;
17361;SDS011;8798;51.938;4.348;2024-01-27T10:21:29;10.50;;;4.87;;
17361;SDS011;8798;51.938;4.348;2024-01-27T10:23:59;14.70;;;4.77;;
17361;SDS011;8798;51.938;4.348;2024-01-27T10:26:30;22.53;;;6.77;;
17361;SDS011;8798;51.938;4.348;2024-01-27T10:29:00;17.13;;;5.90;;
17361;SDS011;8798;51.938;4.348;2024-01-27T10:31:30;25.00;;;6.80;;
17361;SDS011;8798;51.938;4.348;2024-01-27T10:34:00;20.57;;;6.23;;
17361;SDS011;8798;51.938;4.348;2024-01-27T10:36:40;42.77;;;11.03;;
17361;SDS011;8798;51.938;4.348;2024-01-27T10:39:17;22.60;;;6.27;;
17361;SDS011;8798;51.938;4.348;2024-01-27T10:41:47;14.90;;;4.70;;
17361;SDS011;8798;51.938;4.348;2024-01-27T10:44:18;18.33;;;5.10;;
17361;SDS011;8798;51.938;4.348;2024-01-27T10:46:47;13.87;;;5.03;;
17361;SDS011;8798;51.938;4.348;2024-01-27T10:49:16;13.23;;;5.37;;
17361;SDS011;8798;51.938;4.348;2024-01-27T10:51:46;16.97;;;5.33;;
17361;SDS011;8798;51.938;4.348;2024-01-27T10:54:24;12.80;;;4.80;;
17361;SDS011;8798;51.938;4.348;2024-01-27T10:56:55;13.20;;;4.97;;
17361;SDS011;8798;51.938;4.348;2024-01-27T10:59:25;17.00;;;5.73;;
17361;SDS011;8798;51.938;4.348;2024-01-27T11:01:55;11.47;;;4.57;;
17361;SDS011;8798;51.938;4.348;2024-01-27T11:04:24;15.97;;;5.17;;
17361;SDS011;8798;51.938;4.348;2024-01-27T11:06:53;16.43;;;4.97;;
17361;SDS011;8798;51.938;4.348;2024-01-27T11:09:24;16.53;;;5.13;;
17361;SDS011;8798;51.938;4.348;2024-01-27T11:11:53;17.73;;;4.63;;
17361;SDS011;8798;51.938;4.348;2024-01-27T11:14:21;13.03;;;5.23;;
17361;SDS011;8798;51.938;4.348;2024-01-27T11:16:54;12.67;;;4.73;;
17361;SDS011;8798;51.938;4.348;2024-01-27T11:19:22;13.27;;;4.97;;
17361;SDS011;8798;51.938;4.348;2024-01-27T11:21:59;14.33;;;4.73;;
17361;SDS011;8798;51.938;4.348;2024-01-27T11:24:30;12.23;;;4.77;;
17361;SDS011;8798;51.938;4.348;2024-01-27T11:27:01;19.27;;;5.63;;
17361;SDS011;8798;51.938;4.348;2024-01-27T11:29:30;12.43;;;4.77;;
17361;SDS011;8798;51.938;4.348;2024-01-27T11:31:59;12.00;;;4.17;;
17361;SDS011;8798;51.938;4.348;2024-01-27T11:34:28;13.90;;;4.80;;
17361;SDS011;8798;51.938;4.348;2024-01-27T11:37:11;13.10;;;4.90;;
17361;SDS011;8798;51.938;4.348;2024-01-27T11:39:41;14.03;;;4.70;;
17361;SDS011;8798;51.938;4.348;2024-01-27T11:42:10;13.20;;;5.00;;
17361;SDS011;8798;51.938;4.348;2024-01-27T11:44:40;11.43;;;4.60;;
17361;SDS011;8798;51.938;4.348;2024-01-27T11:47:13;13.03;;;4.43;;
17361;SDS011;8798;51.938;4.348;2024-01-27T11:49:43;16.60;;;4.27;;
17361;SDS011;8798;51.938;4.348;2024-01-27T11:52:19;10.93;;;4.20;;
17361;SDS011;8798;51.938;4.348;2024-01-27T11:54:54;8.53;;;4.03;;
17361;SDS011;8798;51.938;4.348;2024-01-27T11:57:22;13.43;;;4.07;;
17361;SDS011;8798;51.938;4.348;2024-01-27T11:59:50;11.23;;;3.90;;
17361;SDS011;8798;51.938;4.348;2024-01-27T12:02:19;19.70;;;5.07;;
17361;SDS011;8798;51.938;4.348;2024-01-27T12:04:47;14.77;;;4.30;;
17361;SDS011;8798;51.938;4.348;2024-01-27T12:07:16;12.63;;;4.80;;
17361;SDS011;8798;51.938;4.348;2024-01-27T12:09:48;13.47;;;4.30;;
17361;SDS011;8798;51.938;4.348;2024-01-27T12:12:18;14.33;;;4.57;;
17361;SDS011;8798;51.938;4.348;2024-01-27T12:14:47;11.67;;;4.20;;
17361;SDS011;8798;51.938;4.348;2024-01-27T12:17:17;10.20;;;3.83;;
17361;SDS011;8798;51.938;4.348;2024-01-27T12:19:45;15.33;;;4.13;;
17361;SDS011;8798;51.938;4.348;2024-01-27T12:22:20;18.07;;;4.53;;
17361;SDS011;8798;51.938;4.348;2024-01-27T12:24:49;15.80;;;4.40;;
17361;SDS011;8798;51.938;4.348;2024-01-27T12:27:21;12.80;;;4.33;;
17361;SDS011;8798;51.938;4.348;2024-01-27T12:29:50;9.80;;;4.03;;
17361;SDS011;8798;51.938;4.348;2024-01-27T12:32:18;10.90;;;3.97;;
17361;SDS011;8798;51.938;4.348;2024-01-27T12:34:46;11.37;;;4.27;;
17361;SDS011;8798;51.938;4.348;2024-01-27T12:37:16;13.70;;;4.13;;
17361;SDS011;8798;51.938;4.348;2024-01-27T12:39:44;10.27;;;4.03;;
17361;SDS011;8798;51.938;4.348;2024-01-27T12:42:12;9.43;;;4.07;;
17361;SDS011;8798;51.938;4.348;2024-01-27T12:44:42;14.53;;;4.13;;
17361;SDS011;8798;51.938;4.348;2024-01-27T12:47:10;12.77;;;4.10;;
17361;SDS011;8798;51.938;4.348;2024-01-27T12:49:39;11.53;;;3.50;;
17361;SDS011;8798;51.938;4.348;2024-01-27T12:52:08;9.93;;;3.33;;
17361;SDS011;8798;51.938;4.348;2024-01-27T12:54:36;15.97;;;4.20;;
17361;SDS011;8798;51.938;4.348;2024-01-27T12:57:04;13.17;;;4.57;;
17361;SDS011;8798;51.938;4.348;2024-01-27T12:59:34;14.63;;;3.80;;
17361;SDS011;8798;51.938;4.348;2024-01-27T13:02:03;17.67;;;4.40;;
17361;SDS011;8798;51.938;4.348;2024-01-27T13:04:31;14.93;;;3.80;;
17361;SDS011;8798;51.938;4.348;2024-01-27T13:06:59;13.20;;;3.60;;
17361;SDS011;8798;51.938;4.348;2024-01-27T13:09:27;12.43;;;3.87;;
17361;SDS011;8798;51.938;4.348;2024-01-27T13:11:55;8.30;;;3.23;;
17361;SDS011;8798;51.938;4.348;2024-01-27T13:14:23;9.43;;;3.47;;
17361;SDS011;8798;51.938;4.348;2024-01-27T13:16:51;12.80;;;3.73;;
17361;SDS011;8798;51.938;4.348;2024-01-27T13:19:22;17.50;;;3.80;;
17361;SDS011;8798;51.938;4.348;2024-01-27T13:21:50;12.97;;;3.60;;
17361;SDS011;8798;51.938;4.348;2024-01-27T13:24:18;11.40;;;3.47;;
17361;SDS011;8798;51.938;4.348;2024-01-27T13:26:46;8.77;;;3.70;;
17361;SDS011;8798;51.938;4.348;2024-01-27T13:29:15;14.73;;;3.70;;
17361;SDS011;8798;51.938;4.348;2024-01-27T13:31:43;9.83;;;3.40;;
17361;SDS011;8798;51.938;4.348;2024-01-27T13:34:10;10.33;;;3.30;;
17361;SDS011;8798;51.938;4.348;2024-01-27T13:36:40;11.63;;;3.47;;
17361;SDS011;8798;51.938;4.348;2024-01-27T13:39:09;10.73;;;3.33;;
17361;SDS011;8798;51.938;4.348;2024-01-27T13:41:37;13.03;;;3.50;;
17361;SDS011;8798;51.938;4.348;2024-01-27T13:44:05;10.87;;;3.30;;
17361;SDS011;8798;51.938;4.348;2024-01-27T13:46:33;12.20;;;3.80;;
17361;SDS011;8798;51.938;4.348;2024-01-27T13:49:01;8.23;;;2.97;;
17361;SDS011;8798;51.938;4.348;2024-01-27T13:51:29;23.37;;;3.60;;
17361;SDS011;8798;51.938;4.348;2024-01-27T13:53:59;12.87;;;3.50;;
17361;SDS011;8798;51.938;4.348;2024-01-27T13:56:27;14.40;;;3.73;;
17361;SDS011;8798;51.938;4.348;2024-01-27T13:58:59;11.90;;;3.50;;
17361;SDS011;8798;51.938;4.348;2024-01-27T14:01:27;13.57;;;3.33;;
17361;SDS011;8798;51.938;4.348;2024-01-27T14:03:55;13.23;;;3.57;;
17361;SDS011;8798;51.938;4.348;2024-01-27T14:06:23;13.53;;;3.30;;
17361;SDS011;8798;51.938;4.348;2024-01-27T14:08:52;9.37;;;3.37;;
17361;SDS011;8798;51.938;4.348;2024-01-27T14:11:22;12.83;;;3.47;;
17361;SDS011;8798;51.938;4.348;2024-01-27T14:13:50;11.50;;;4.00;;
17361;SDS011;8798;51.938;4.348;2024-01-27T14:16:18;12.93;;;3.73;;
17361;SDS011;8798;51.938;4.348;2024-01-27T14:18:47;8.20;;;3.13;;
17361;SDS011;8798;51.938;4.348;2024-01-27T14:21:15;11.03;;;3.50;;
17361;SDS011;8798;51.938;4.348;2024-01-27T14:23:43;13.80;;;3.83;;
17361;SDS011;8798;51.938;4.348;2024-01-27T14:26:11;15.27;;;3.47;;
17361;SDS011;8798;51.938;4.348;2024-01-27T14:28:43;9.93;;;3.37;;
17361;SDS011;8798;51.938;4.348;2024-01-27T14:31:12;12.87;;;3.40;;
17361;SDS011;8798;51.938;4.348;2024-01-27T14:33:41;13.80;;;3.40;;
17361;SDS011;8798;51.938;4.348;2024-01-27T14:36:09;10.20;;;3.30;;
17361;SDS011;8798;51.938;4.348;2024-01-27T14:38:38;10.00;;;3.47;;
17361;SDS011;8798;51.938;4.348;2024-01-27T14:41:07;15.77;;;4.47;;
17361;SDS011;8798;51.938;4.348;2024-01-27T14:43:35;11.00;;;3.77;;
17361;SDS011;8798;51.938;4.348;2024-01-27T14:46:06;13.27;;;3.67;;
17361;SDS011;8798;51.938;4.348;2024-01-27T14:48:34;15.47;;;3.90;;
17361;SDS011;8798;51.938;4.348;2024-01-27T14:51:03;17.70;;;4.13;;
17361;SDS011;8798;51.938;4.348;2024-01-27T14:53:32;14.00;;;4.20;;
17361;SDS011;8798;51.938;4.348;2024-01-27T14:56:00;13.50;;;3.80;;
17361;SDS011;8798;51.938;4.348;2024-01-27T14:58:29;11.53;;;3.60;;
17361;SDS011;8798;51.938;4.348;2024-01-27T15:00:57;13.77;;;3.87;;